ATN3767 / N359AZ 7700 Squawk Report (13th of September, 2017)

Time Lat Lon Altitude Heading Speed Vertical Rate
2017-09-13 09:01:28 GMT 34.05315 -101.78026 6,650 173 270 -1152
2017-09-13 09:01:25 GMT 34.05571 -101.78060 6,700 173 270 -1152
2017-09-13 09:01:16 GMT 34.06725 -101.78215 6,875 173 271 -1216
2017-09-13 09:01:06 GMT 34.07996 -101.78401 7,075 173 272 -1216
2017-09-13 09:00:54 GMT 34.09486 -101.78610 7,300 173 273 -1152
2017-09-13 09:00:28 GMT 34.12679 -101.79039 7,775 173 276 -1216
2017-09-13 09:00:23 GMT 34.13470 -101.79141 7,900 173 277 -1216
2017-09-13 09:00:12 GMT 34.14844 -101.79315 8,125 174 277 -1216
2017-09-13 08:59:23 GMT 34.21161 -101.80049 9,000 174 283 0
2017-09-13 08:59:14 GMT 34.22310 -101.80173 9,250 175 283 -1280
2017-09-13 08:59:09 GMT 34.22946 -101.80223 9,350 175 282 -1344
2017-09-13 08:58:59 GMT 34.24164 -101.80344 9,575 175 282 -1344
2017-09-13 08:58:48 GMT 34.25691 -101.80481 9,825 175 282 -1280
2017-09-13 08:58:38 GMT 34.26961 -101.80599 10,025 175 284 -1216
2017-09-13 08:58:29 GMT 34.28302 -101.80738 10,250 175 284 -1216
2017-09-13 08:58:17 GMT 34.29727 -101.80893 10,475 175 285 -1216
2017-09-13 08:58:08 GMT 34.31117 -101.81030 10,675 175 287 -1216
2017-09-13 08:57:57 GMT 34.32525 -101.81185 10,875 175 289 -1024
2017-09-13 08:57:46 GMT 34.33896 -101.81322 10,975 175 291 -256
2017-09-13 08:57:35 GMT 34.35287 -101.81479 10,975 174 291 0
2017-09-13 08:57:26 GMT 34.36714 -101.81631 11,000 175 291 0
2017-09-13 08:57:14 GMT 34.38171 -101.81786 11,000 175 292 0
2017-09-13 08:57:14 GMT 34.38223 -101.81786 11,000 175 292 0
2017-09-13 08:57:02 GMT 34.39769 -101.81955 11,000 175 293 0
2017-09-13 08:56:53 GMT 34.40988 -101.82077 11,000 174 293 0
2017-09-13 08:56:42 GMT 34.42445 -101.82232 11,000 174 293 0
2017-09-13 08:56:32 GMT 34.43855 -101.82386 11,000 174 292 0
2017-09-13 08:56:22 GMT 34.45243 -101.82541 11,000 174 292 64
2017-09-13 08:56:09 GMT 34.46928 -101.82730 11,000 174 291 0
2017-09-13 08:55:59 GMT 34.48264 -101.82867 11,000 174 291 0
2017-09-13 08:55:50 GMT 34.49502 -101.83004 11,000 174 291 0
2017-09-13 08:55:40 GMT 34.51030 -101.83177 11,000 174 291 0
2017-09-13 08:55:29 GMT 34.52454 -101.83330 11,000 174 291 0
2017-09-13 08:55:17 GMT 34.53932 -101.83502 11,000 174 291 0
2017-09-13 08:55:07 GMT 34.55233 -101.83639 11,000 174 290 0
2017-09-13 08:54:57 GMT 34.56661 -101.83794 11,000 174 290 0
2017-09-13 08:54:46 GMT 34.58086 -101.83966 11,000 174 290 0
2017-09-13 08:54:35 GMT 34.59563 -101.84136 11,000 174 290 0
2017-09-13 08:54:25 GMT 34.60917 -101.84292 11,000 174 291 0
2017-09-13 08:54:14 GMT 34.62374 -101.84463 11,000 174 291 64
2017-09-13 08:54:04 GMT 34.63766 -101.84618 10,975 174 290 0
2017-09-13 08:53:53 GMT 34.65243 -101.84791 10,975 174 290 0
2017-09-13 08:53:42 GMT 34.66615 -101.84944 10,975 174 292 -64
2017-09-13 08:53:32 GMT 34.68041 -101.85100 11,000 174 294 0
2017-09-13 08:53:21 GMT 34.69534 -101.85270 11,000 174 295 0
2017-09-13 08:53:10 GMT 34.70975 -101.85442 11,000 174 295 0
2017-09-13 08:53:00 GMT 34.72403 -101.85599 11,000 174 294 0
2017-09-13 08:52:49 GMT 34.73844 -101.85751 11,000 174 293 0
2017-09-13 08:52:38 GMT 34.75301 -101.85905 10,975 174 293 64
2017-09-13 08:52:28 GMT 34.76707 -101.86060 10,975 174 293 64
2017-09-13 08:52:17 GMT 34.78169 -101.86214 10,975 174 293 64
2017-09-13 08:52:06 GMT 34.79594 -101.86366 10,975 174 294 0
2017-09-13 08:51:56 GMT 34.81068 -101.86523 10,975 174 296 -64
2017-09-13 08:51:45 GMT 34.82547 -101.86697 11,000 174 297 -64
2017-09-13 08:51:35 GMT 34.83937 -101.86832 11,000 175 296 64
2017-09-13 08:51:24 GMT 34.85413 -101.87004 11,000 173 296 0
2017-09-13 08:51:13 GMT 34.86818 -101.87313 11,000 165 295 0
2017-09-13 08:51:02 GMT 34.88264 -101.87779 11,000 165 291 64
2017-09-13 08:50:52 GMT 34.89670 -101.88222 11,000 164 287 -64
2017-09-13 08:50:41 GMT 34.91011 -101.88670 10,975 164 288 448
2017-09-13 08:50:31 GMT 34.92381 -101.89133 10,925 164 292 128
2017-09-13 08:50:20 GMT 34.93771 -101.89595 10,950 164 292 -192
2017-09-13 08:50:09 GMT 34.95165 -101.90042 10,975 165 293 -256
2017-09-13 08:49:59 GMT 34.96590 -101.90489 11,000 165 294 -64
2017-09-13 08:49:48 GMT 34.97928 -101.90918 11,000 165 294 0
2017-09-13 08:49:38 GMT 34.99370 -101.91383 10,975 165 296 -64
2017-09-13 08:49:27 GMT 35.00794 -101.91826 11,000 165 297 -128
2017-09-13 08:49:16 GMT 35.02185 -101.92258 10,950 165 300 576
2017-09-13 08:49:06 GMT 35.03590 -101.92723 10,925 164 306 -192
2017-09-13 08:48:55 GMT 35.05060 -101.93211 10,950 163 303 -320
2017-09-13 08:48:45 GMT 35.06529 -101.93732 11,000 164 298 -448
2017-09-13 08:48:34 GMT 35.07903 -101.94214 11,025 164 295 384
2017-09-13 08:48:24 GMT 35.09276 -101.94662 10,975 165 293 256
2017-09-13 08:48:13 GMT 35.10714 -101.95124 10,925 165 293 -192
2017-09-13 08:48:02 GMT 35.12138 -101.95570 11,000 165 289 -320
2017-09-13 08:47:52 GMT 35.13428 -101.95982 11,025 165 287 -256
2017-09-13 08:47:41 GMT 35.14838 -101.96428 11,025 164 287 256
2017-09-13 08:47:30 GMT 35.16193 -101.96876 10,975 164 290 256
2017-09-13 08:47:20 GMT 35.17598 -101.97353 11,000 164 291 -64
2017-09-13 08:47:09 GMT 35.19023 -101.97836 10,975 164 292 0
2017-09-13 08:46:59 GMT 35.20345 -101.98282 10,925 164 294 -64
2017-09-13 08:46:48 GMT 35.21704 -101.98726 10,975 164 293 -320
2017-09-13 08:46:38 GMT 35.23091 -101.99209 11,000 164 291 -192
2017-09-13 08:46:27 GMT 35.24533 -101.99690 11,025 164 290 64
2017-09-13 08:46:16 GMT 35.25908 -102.00169 11,000 164 290 192
2017-09-13 08:46:05 GMT 35.27271 -102.00640 10,975 164 291 192
2017-09-13 08:45:55 GMT 35.28604 -102.01098 10,925 164 293 -128
2017-09-13 08:45:44 GMT 35.30000 -102.01589 10,975 164 291 -64
2017-09-13 08:45:33 GMT 35.31427 -102.02065 11,000 164 289 -192
2017-09-13 08:45:23 GMT 35.32782 -102.02528 10,975 164 290 384
2017-09-13 08:45:13 GMT 35.34111 -102.02985 10,925 164 292 128
2017-09-13 08:45:02 GMT 35.35521 -102.03465 10,975 164 291 -64
2017-09-13 08:44:51 GMT 35.36893 -102.03930 10,975 164 290 -128
2017-09-13 08:44:40 GMT 35.38284 -102.04411 11,000 164 290 -128
2017-09-13 08:44:30 GMT 35.39694 -102.04891 11,000 164 289 448
2017-09-13 08:44:19 GMT 35.41031 -102.05355 10,925 164 289 0
2017-09-13 08:44:09 GMT 35.42372 -102.05818 10,975 164 288 -64
2017-09-13 08:43:58 GMT 35.43724 -102.06299 10,975 164 289 128
2017-09-13 08:43:48 GMT 35.45100 -102.06780 10,975 164 289 -192
2017-09-13 08:43:37 GMT 35.46492 -102.07260 11,000 164 288 -192
2017-09-13 08:43:26 GMT 35.47844 -102.07725 11,000 164 288 128
2017-09-13 08:43:16 GMT 35.49203 -102.08186 10,950 164 291 640
2017-09-13 08:43:05 GMT 35.50626 -102.08685 10,950 164 293 -256
2017-09-13 08:42:54 GMT 35.52020 -102.09168 10,975 164 294 -64
2017-09-13 08:42:44 GMT 35.53393 -102.09630 10,950 164 297 -128
2017-09-13 08:42:34 GMT 35.54780 -102.10091 11,025 164 297 -320
2017-09-13 08:42:23 GMT 35.56187 -102.10556 11,000 164 297 192
2017-09-13 08:42:12 GMT 35.57629 -102.11020 11,000 165 296 64
2017-09-13 08:42:02 GMT 35.59040 -102.11465 10,975 164 296 128
2017-09-13 08:41:51 GMT 35.60464 -102.11944 10,950 164 296 192
2017-09-13 08:41:40 GMT 35.61837 -102.12411 10,900 164 296 320
2017-09-13 08:41:30 GMT 35.63211 -102.12856 11,025 165 288 -832
2017-09-13 08:41:19 GMT 35.64565 -102.13251 11,075 166 283 -64
2017-09-13 08:41:08 GMT 35.65956 -102.13646 11,100 167 288 -512
2017-09-13 08:40:58 GMT 35.67329 -102.14041 11,225 167 291 -832
2017-09-13 08:40:47 GMT 35.68739 -102.14453 11,375 165 292 -704
2017-09-13 08:40:37 GMT 35.70113 -102.14882 11,475 165 290 -192
2017-09-13 08:40:26 GMT 35.71534 -102.15327 11,500 165 294 -192
2017-09-13 08:40:16 GMT 35.72910 -102.15740 11,700 166 296 -1472
2017-09-13 08:40:05 GMT 35.74402 -102.16169 11,975 167 297 -1536
2017-09-13 08:39:55 GMT 35.75743 -102.16564 12,200 166 296 -1344
2017-09-13 08:39:44 GMT 35.77199 -102.16976 12,375 167 301 -704
2017-09-13 08:39:33 GMT 35.78605 -102.17355 12,550 167 304 -1280
2017-09-13 08:39:22 GMT 35.80151 -102.17782 12,800 167 305 -1664
2017-09-13 08:39:12 GMT 35.81576 -102.18162 13,125 167 304 -1728
2017-09-13 08:39:02 GMT 35.82985 -102.18538 13,375 167 304 -1408
2017-09-13 08:38:51 GMT 35.84494 -102.18986 13,575 165 308 -1024
2017-09-13 08:38:40 GMT 35.85919 -102.19518 13,750 160 311 -1216
2017-09-13 08:38:30 GMT 35.87343 -102.20306 14,000 148 313 -1088
2017-09-13 08:38:19 GMT 35.88531 -102.21475 14,200 133 316 -1856
2017-09-13 08:38:09 GMT 35.89458 -102.22984 14,575 120 312 -1920
2017-09-13 08:37:58 GMT 35.90195 -102.24684 14,800 117 314 -1088
2017-09-13 08:37:47 GMT 35.90900 -102.26296 15,050 118 315 -1792
2017-09-13 08:37:37 GMT 35.91636 -102.27997 15,400 117 312 -2112
2017-09-13 08:37:26 GMT 35.92325 -102.29645 15,725 116 309 -1728
2017-09-13 08:37:16 GMT 35.92958 -102.31380 16,000 113 310 -1280
2017-09-13 08:37:05 GMT 35.93628 -102.33078 16,225 118 312 -1472
2017-09-13 08:36:54 GMT 35.94420 -102.34743 16,500 122 313 -1536
2017-09-13 08:36:44 GMT 35.95258 -102.36271 16,750 125 314 -1216
2017-09-13 08:36:33 GMT 35.96132 -102.37850 16,975 123 316 -1408
2017-09-13 08:36:23 GMT 35.96956 -102.39427 17,150 123 320 -704
2017-09-13 08:36:12 GMT 35.97920 -102.41110 17,300 125 325 -832
2017-09-13 08:36:01 GMT 35.98846 -102.42688 17,450 126 329 -1024
2017-09-13 08:35:51 GMT 35.99810 -102.44254 17,675 127 331 -1536
2017-09-13 08:35:40 GMT 36.00802 -102.45885 18,000 126 331 -1984
2017-09-13 08:35:29 GMT 36.01749 -102.47498 18,325 126 330 -1856
2017-09-13 08:35:19 GMT 36.02710 -102.49110 18,650 126 328 -1792
2017-09-13 08:35:08 GMT 36.03690 -102.50691 18,925 127 329 -1216
2017-09-13 08:34:57 GMT 36.04735 -102.52336 19,075 128 335 -640
2017-09-13 08:34:47 GMT 36.05745 -102.53797 19,175 132 341 -576
2017-09-13 08:34:39 GMT 36.06658 -102.55018 19,275 133 345 -1088
2017-09-13 08:34:37 GMT 36.06898 -102.55325 19,325 132 345 -1536
2017-09-13 08:34:29 GMT 36.07809 -102.56630 19,575 128 342 -1664
2017-09-13 08:34:26 GMT 36.07997 -102.56939 19,625 127 340 -1664
2017-09-13 08:34:18 GMT 36.08752 -102.58175 19,825 126 339 -1216
2017-09-13 08:34:15 GMT 36.08990 -102.58589 19,875 126 339 -1280
2017-09-13 08:34:08 GMT 36.09698 -102.59770 20,075 124 339 -1920
2017-09-13 08:34:04 GMT 36.10038 -102.60424 20,200 123 338 -2176
2017-09-13 08:33:58 GMT 36.10522 -102.61418 20,450 116 335 -2432
2017-09-13 08:33:54 GMT 36.10762 -102.62003 20,575 113 333 -2112
2017-09-13 08:33:47 GMT 36.11187 -102.63375 20,725 108 335 -640
2017-09-13 08:33:44 GMT 36.11308 -102.63889 20,750 105 336 -576
2017-09-13 08:33:37 GMT 36.11531 -102.65213 20,825 98 339 -576
2017-09-13 08:33:33 GMT 36.11602 -102.65952 20,875 95 341 -832
2017-09-13 08:33:27 GMT 36.11653 -102.67291 21,025 89 343 -1472
2017-09-13 08:33:22 GMT 36.11634 -102.67992 21,100 85 343 -1536
2017-09-13 08:33:15 GMT 36.11462 -102.69470 21,275 79 344 -1088
2017-09-13 08:33:11 GMT 36.11327 -102.70224 21,350 75 345 -1024
2017-09-13 08:33:05 GMT 36.11018 -102.71479 21,475 71 348 -1472
2017-09-13 08:33:01 GMT 36.10862 -102.72047 21,550 71 348 -1600
2017-09-13 08:32:52 GMT 36.10401 -102.73713 21,825 71 349 -1856
2017-09-13 08:32:50 GMT 36.10247 -102.74245 21,900 71 348 -1984
2017-09-13 08:32:45 GMT 36.09970 -102.75255 22,075 70 348 -1984
2017-09-13 08:32:39 GMT 36.09663 -102.76302 22,250 69 347 -1856
2017-09-13 08:32:35 GMT 36.09389 -102.77195 22,400 69 347 -1664
2017-09-13 08:32:28 GMT 36.09078 -102.78225 22,550 69 348 -1472
2017-09-13 08:32:24 GMT 36.08771 -102.79203 22,650 69 349 -1216
2017-09-13 08:32:18 GMT 36.08496 -102.80182 22,750 70 352 -1024
2017-09-13 08:32:11 GMT 36.08084 -102.81555 22,875 70 353 -1088
2017-09-13 08:32:07 GMT 36.07892 -102.82192 22,950 69 356 -1024
2017-09-13 08:32:03 GMT 36.07617 -102.83115 23,025 69 359 -1152
2017-09-13 08:31:56 GMT 36.07292 -102.84233 23,175 70 359 -1728
2017-09-13 08:31:53 GMT 36.07017 -102.85160 23,325 70 359 -1984
2017-09-13 08:31:46 GMT 36.06658 -102.86347 23,525 69 358 -1984
2017-09-13 08:31:42 GMT 36.06402 -102.87183 23,650 69 358 -1920
2017-09-13 08:31:35 GMT 36.06057 -102.88334 23,850 70 358 -2048
2017-09-13 08:31:32 GMT 36.05818 -102.89160 24,000 70 358 -1920
2017-09-13 08:31:25 GMT 36.05475 -102.90379 24,175 70 358 -1536
2017-09-13 08:31:20 GMT 36.05214 -102.91237 24,275 69 359 -1216
2017-09-13 08:31:14 GMT 36.04839 -102.92456 24,400 68 361 -960
2017-09-13 08:31:10 GMT 36.04564 -102.93314 24,475 68 363 -1088
2017-09-13 08:31:03 GMT 36.04205 -102.94517 24,600 70 365 -1280
2017-09-13 08:30:59 GMT 36.03981 -102.95306 24,700 71 367 -1344
2017-09-13 08:30:53 GMT 36.03637 -102.96574 24,850 71 369 -1600
2017-09-13 08:30:49 GMT 36.03343 -102.97620 25,000 71 369 -1728
2017-09-13 08:30:42 GMT 36.03035 -102.98773 25,175 71 369 -1856
2017-09-13 08:30:39 GMT 36.02831 -102.99542 25,275 71 369 -1792
2017-09-13 08:30:31 GMT 36.02454 -103.00936 25,475 71 370 -1792
2017-09-13 08:30:28 GMT 36.02245 -103.01693 25,600 70 370 -1728
2017-09-13 08:30:21 GMT 36.01886 -103.02961 25,775 70 370 -1728
2017-09-13 08:30:18 GMT 36.01662 -103.03717 25,900 70 370 -1728
2017-09-13 08:30:14 GMT 36.01424 -103.04524 26,000 70 370 -1664
2017-09-13 08:30:11 GMT 36.01286 -103.05004 26,075 69 371 -1664
2017-09-13 08:30:08 GMT 36.01062 -103.05708 26,175 68 371 -1536
2017-09-13 08:30:00 GMT 36.00597 -103.07186 26,350 68 373 -1472
2017-09-13 08:29:58 GMT 36.00462 -103.07648 26,425 68 373 -1408
2017-09-13 08:29:49 GMT 35.99927 -103.09279 26,625 68 376 -1664
2017-09-13 08:29:47 GMT 35.99740 -103.09880 26,725 69 376 -1856
2017-09-13 08:29:39 GMT 35.99309 -103.11373 26,950 70 377 -1984
2017-09-13 08:29:37 GMT 35.99171 -103.11871 27,050 70 376 -1984
2017-09-13 08:29:30 GMT 35.98744 -103.13363 27,275 70 376 -2048
2017-09-13 08:29:28 GMT 35.98709 -103.13484 27,300 70 377 -2048
2017-09-13 08:29:26 GMT 35.98539 -103.14088 27,400 69 376 -1792
2017-09-13 08:29:20 GMT 35.98227 -103.15046 27,550 69 377 -1664
2017-09-13 08:29:18 GMT 35.98055 -103.15613 27,625 69 376 -1600
2017-09-13 08:29:14 GMT 35.97798 -103.16471 27,725 70 378 -1408
2017-09-13 08:29:07 GMT 35.97423 -103.17776 27,875 70 380 -1344
2017-09-13 08:28:58 GMT 35.96855 -103.19733 28,075 69 382 -1344
2017-09-13 08:28:56 GMT 35.96755 -103.20059 28,125 69 383 -1280
2017-09-13 08:28:50 GMT 35.96342 -103.21416 28,250 69 384 -1152
2017-09-13 08:28:46 GMT 35.96137 -103.22119 28,300 69 388 -1280
2017-09-13 08:28:43 GMT 35.95946 -103.22736 28,375 70 390 -1472
2017-09-13 08:28:38 GMT 35.95569 -103.24004 28,525 70 390 -1472
2017-09-13 08:28:35 GMT 35.95448 -103.24419 28,575 69 391 -1600
2017-09-13 08:28:33 GMT 35.95294 -103.24916 28,650 69 392 -1600
2017-09-13 08:28:27 GMT 35.94969 -103.25997 28,775 69 396 -1856
2017-09-13 08:28:23 GMT 35.94626 -103.27045 28,925 68 393 -1728
2017-09-13 08:28:14 GMT 35.94094 -103.28779 29,150 69 395 -1792
2017-09-13 08:28:12 GMT 35.93953 -103.29243 29,225 69 396 -1792
2017-09-13 08:28:03 GMT 35.93404 -103.31011 29,500 69 397 -2048
2017-09-13 08:28:01 GMT 35.93218 -103.31648 29,600 69 397 -2048
2017-09-13 08:27:51 GMT 35.92548 -103.33809 29,950 69 397 -2048
2017-09-13 08:27:42 GMT 35.91998 -103.35594 30,225 69 398 -1920
2017-09-13 08:27:31 GMT 35.91344 -103.37809 30,550 70 400 -1792
2017-09-13 08:27:25 GMT 35.90881 -103.39354 30,750 70 402 -1600
2017-09-13 08:27:21 GMT 35.90676 -103.40092 30,825 70 403 -1536
2017-09-13 08:27:13 GMT 35.90176 -103.41894 31,025 71 406 -1408
2017-09-13 08:27:10 GMT 35.90025 -103.42409 31,075 71 407 -1408
2017-09-13 08:27:04 GMT 35.89613 -103.43903 31,250 70 409 -1536
2017-09-13 08:26:59 GMT 35.89352 -103.44778 31,350 69 410 -1664
2017-09-13 08:26:53 GMT 35.88926 -103.46234 31,525 70 413 -1664
2017-09-13 08:26:49 GMT 35.88665 -103.47128 31,650 70 414 -1664
2017-09-13 08:26:44 GMT 35.88307 -103.48385 31,800 70 416 -1536
2017-09-13 08:26:42 GMT 35.88153 -103.48917 31,875 70 416 -1472
2017-09-13 08:26:38 GMT 35.88000 -103.49448 31,925 70 417 -1344
2017-09-13 08:26:31 GMT 35.87516 -103.51061 32,075 69 420 -1344
2017-09-13 08:26:28 GMT 35.87278 -103.51868 32,175 69 421 -1472
2017-09-13 08:26:22 GMT 35.86812 -103.53361 32,350 69 424 -1856
2017-09-13 08:26:17 GMT 35.86537 -103.54271 32,475 70 425 -2048
2017-09-13 08:26:06 GMT 35.85835 -103.56671 32,875 69 425 -2432
2017-09-13 08:26:00 GMT 35.85356 -103.58220 33,175 69 424 -2624
2017-09-13 08:25:56 GMT 35.85095 -103.59077 33,350 69 423 -2944
2017-09-13 08:25:48 GMT 35.84583 -103.60844 33,725 69 421 -3136
2017-09-13 08:25:45 GMT 35.84376 -103.61515 33,875 69 419 -3136
2017-09-13 08:25:38 GMT 35.83859 -103.63197 34,275 68 416 -2880
2017-09-13 08:25:34 GMT 35.83656 -103.63865 34,400 68 415 -2048
2017-09-13 08:25:26 GMT 35.83003 -103.65944 34,725 68 414 -2752
2017-09-13 08:25:24 GMT 35.82916 -103.66201 34,775 69 416 -2240
2017-09-13 08:25:15 GMT 35.82283 -103.68178 35,175 68 414 -2752
2017-09-13 08:25:13 GMT 35.82162 -103.68534 35,250 67 413 -2688
2017-09-13 08:25:08 GMT 35.81697 -103.69907 35,500 66 411 -2432
2017-09-13 08:25:02 GMT 35.81338 -103.70942 35,700 66 411 -2176
2017-09-13 08:24:57 GMT 35.80910 -103.72140 35,875 65 410 -1984
2017-09-13 08:24:53 GMT 35.80547 -103.73069 36,025 65 412 -1792
2017-09-13 08:24:52 GMT 35.80547 -103.73069 36,025 65 411 -1728
2017-09-13 08:24:47 GMT 35.80083 -103.74304 36,200 65 412 -1792
2017-09-13 08:24:41 GMT 35.79707 -103.75334 36,325 65 412 -1664
2017-09-13 08:24:35 GMT 35.79211 -103.76756 36,500 67 415 -1408
2017-09-13 08:24:31 GMT 35.78917 -103.77633 36,575 68 417 -1280
2017-09-13 08:24:25 GMT 35.78490 -103.79024 36,725 70 421 -1280
2017-09-13 08:24:20 GMT 35.78196 -103.80052 36,800 71 423 -1216
2017-09-13 08:24:14 GMT 35.77837 -103.81426 36,925 71 426 -1088
2017-09-13 08:24:09 GMT 35.77542 -103.82492 37,000 72 428 -832
2017-09-13 08:24:03 GMT 35.77181 -103.83851 37,050 71 432 -640
2017-09-13 08:23:59 GMT 35.76906 -103.84879 37,100 71 435 -832
2017-09-13 08:23:54 GMT 35.76512 -103.86337 37,150 71 439 -320
2017-09-13 08:23:49 GMT 35.76237 -103.87384 37,175 71 442 0
2017-09-13 08:23:43 GMT 35.75844 -103.88826 37,175 71 449 192
2017-09-13 08:23:38 GMT 35.75537 -103.90011 37,125 72 452 384
2017-09-13 08:23:33 GMT 35.75175 -103.91331 37,100 71 456 256
2017-09-13 08:23:27 GMT 35.74867 -103.92517 37,075 71 459 384
2017-09-13 08:23:22 GMT 35.74452 -103.93942 37,050 70 462 512
2017-09-13 08:23:17 GMT 35.74095 -103.95176 37,025 69 464 192
2017-09-13 08:23:12 GMT 35.73648 -103.96672 37,000 69 464 64
2017-09-13 08:23:06 GMT 35.73303 -103.97804 37,000 69 465 0
2017-09-13 08:23:00 GMT 35.72859 -103.99298 37,000 69 465 0
2017-09-13 08:22:55 GMT 35.72498 -104.00482 37,000 69 466 0
2017-09-13 08:22:51 GMT 35.72104 -104.01770 37,000 69 466 0
2017-09-13 08:22:45 GMT 35.71706 -104.03074 37,000 69 466 0
2017-09-13 08:22:39 GMT 35.71243 -104.04551 37,000 69 467 0
2017-09-13 08:22:34 GMT 35.70901 -104.05701 37,000 69 467 0
2017-09-13 08:22:24 GMT 35.70110 -104.08295 37,000 69 468 0
2017-09-13 08:22:13 GMT 35.69286 -104.10989 37,000 69 468 64
2017-09-13 08:22:03 GMT 35.68478 -104.13631 37,000 69 469 -64
2017-09-13 08:21:52 GMT 35.67654 -104.16326 37,000 69 469 -64
2017-09-13 08:21:41 GMT 35.66851 -104.18972 37,000 69 470 0
2017-09-13 08:21:31 GMT 35.66041 -104.21578 37,000 69 471 64
2017-09-13 08:21:20 GMT 35.65217 -104.24290 37,000 69 472 0
2017-09-13 08:21:10 GMT 35.64412 -104.26902 37,000 69 473 0
2017-09-13 08:20:59 GMT 35.63603 -104.29562 37,000 69 474 0
2017-09-13 08:20:48 GMT 35.62713 -104.32430 37,000 69 475 0
2017-09-13 08:20:37 GMT 35.61940 -104.34949 37,000 69 475 0
2017-09-13 08:20:33 GMT 35.61493 -104.36411 37,000 69 476 0
2017-09-13 08:20:27 GMT 35.61118 -104.37630 37,000 69 476 0
2017-09-13 08:20:16 GMT 35.60275 -104.40359 37,000 69 477 0
2017-09-13 08:20:06 GMT 35.59486 -104.42949 37,000 69 477 0
2017-09-13 08:19:55 GMT 35.58659 -104.45629 37,000 69 477 0
2017-09-13 08:19:45 GMT 35.57820 -104.48325 37,025 69 477 -128
2017-09-13 08:19:34 GMT 35.56977 -104.51037 37,025 69 476 -64
2017-09-13 08:19:23 GMT 35.56139 -104.53766 37,000 69 473 448
2017-09-13 08:19:13 GMT 35.55313 -104.56409 36,850 69 471 1216
2017-09-13 08:19:07 GMT 35.54814 -104.58006 36,700 69 471 1280
2017-09-13 08:19:02 GMT 35.54507 -104.59001 36,625 69 471 1344
2017-09-13 08:18:43 GMT 35.53047 -104.63705 36,200 69 471 1344
2017-09-13 08:14:46 GMT 35.34302 -105.23272 35,000 68 479 0
2017-09-13 08:12:05 GMT 35.21221 -105.64127 35,000 68 481 0
2017-09-13 08:12:02 GMT 35.21221 -105.64127 35,000 68.7 481.9 0
2017-09-13 08:12:02 GMT 35.21221 -105.64127 35,000 68.7 481.9 0
2017-09-13 08:11:53 GMT 35.20226 -105.67217 35,000 68 481 -64
2017-09-13 08:11:50 GMT 35.20038 -105.67816 35,000 68 480 0
2017-09-13 08:11:42 GMT 35.19315 -105.70047 35,000 68 480 0
2017-09-13 08:11:28 GMT 35.18271 -105.73276 35,000 68 481 -64
2017-09-13 08:11:19 GMT 35.17413 -105.75954 35,025 68 480 0
2017-09-13 08:11:09 GMT 35.16705 -105.78119 35,025 68 480 0
2017-09-13 08:11:00 GMT 35.15900 -105.80641 35,025 68 479 0
2017-09-13 08:10:49 GMT 35.15044 -105.83248 35,000 68 478 64
2017-09-13 08:10:39 GMT 35.14165 -105.85961 35,000 68 477 0
2017-09-13 08:10:27 GMT 35.13327 -105.88556 35,025 68 476 0
2017-09-13 08:10:18 GMT 35.12469 -105.91198 35,000 68 474 0
2017-09-13 08:10:06 GMT 35.11610 -105.93842 35,000 68 473 0
2017-09-13 08:09:57 GMT 35.10784 -105.96365 35,025 68 471 0
2017-09-13 08:09:45 GMT 35.09927 -105.99026 35,025 68 469 0
2017-09-13 08:09:36 GMT 35.09070 -106.01633 35,000 68 469 64
2017-09-13 08:09:25 GMT 35.08278 -106.04105 35,000 68 469 -64
2017-09-13 08:09:15 GMT 35.07385 -106.06802 35,025 68 469 64
2017-09-13 08:09:04 GMT 35.06580 -106.09323 35,000 68 469 0
2017-09-13 08:08:54 GMT 35.05737 -106.11885 35,000 68 470 0
2017-09-13 08:08:43 GMT 35.04881 -106.14492 35,000 68 471 0
2017-09-13 08:08:33 GMT 35.04039 -106.17103 35,025 68 471 64
2017-09-13 08:08:21 GMT 35.03009 -106.20259 35,000 68 471 -64
2017-09-13 08:08:12 GMT 35.02322 -106.22339 35,025 68 471 -64
2017-09-13 08:08:10 GMT 35.02237 -106.22578 35,025 68 471 0
2017-09-13 08:08:00 GMT 35.01464 -106.24947 35,025 68 471 64
2017-09-13 08:07:57 GMT 35.01208 -106.25736 35,000 68 471 64
2017-09-13 08:07:47 GMT 35.00382 -106.28258 35,000 68 471 0
2017-09-13 08:07:39 GMT 34.99779 -106.30079 35,000 68 471 -64
2017-09-13 08:07:36 GMT 34.99471 -106.31005 35,025 68 471 -64
2017-09-13 08:07:29 GMT 34.98941 -106.32637 35,000 68 471 0
2017-09-13 08:07:24 GMT 34.98461 -106.34113 35,025 68 471 0
2017-09-13 08:07:17 GMT 34.98029 -106.35450 35,000 68 471 0
2017-09-13 08:07:08 GMT 34.97139 -106.38165 35,000 68 471 0
2017-09-13 08:06:56 GMT 34.96296 -106.40722 35,000 68 471 0
2017-09-13 08:06:46 GMT 34.95474 -106.43230 35,000 68 470 0
2017-09-13 08:06:36 GMT 34.94616 -106.45838 35,025 68 470 -64
2017-09-13 08:06:25 GMT 34.93771 -106.48342 35,025 68 470 0
2017-09-13 08:06:14 GMT 34.92865 -106.51088 35,000 68 470 64
2017-09-13 08:06:04 GMT 34.92091 -106.53459 35,000 68 470 -64
2017-09-13 08:05:55 GMT 34.91217 -106.56105 35,025 68 470 -64
2017-09-13 08:05:44 GMT 34.90389 -106.58609 35,025 68 469 -64
2017-09-13 08:05:33 GMT 34.89481 -106.61356 35,025 68 469 64
2017-09-13 08:05:22 GMT 34.88606 -106.64000 35,000 68 468 0
2017-09-13 08:05:13 GMT 34.87801 -106.66437 35,000 68 468 -64
2017-09-13 08:05:02 GMT 34.87028 -106.68789 35,025 68 468 64
2017-09-13 08:04:52 GMT 34.86205 -106.71278 35,000 68 467 64
2017-09-13 08:04:42 GMT 34.85343 -106.73853 35,000 68 467 0
2017-09-13 08:04:40 GMT 34.85257 -106.74092 35,000 68 467 0
2017-09-13 08:04:31 GMT 34.84451 -106.76530 35,000 68 467 -64
2017-09-13 08:04:20 GMT 34.83646 -106.78969 35,000 68 466 0
2017-09-13 08:04:10 GMT 34.82806 -106.81543 35,000 68 466 0
2017-09-13 08:03:59 GMT 34.81947 -106.84120 35,025 68 465 -64
2017-09-13 08:03:49 GMT 34.81036 -106.86850 35,000 68 465 64
2017-09-13 08:03:38 GMT 34.80245 -106.89217 35,000 68 464 0
2017-09-13 08:03:28 GMT 34.79421 -106.91740 35,000 68 464 0
2017-09-13 08:03:18 GMT 34.78616 -106.94160 35,000 67 463 0
2017-09-13 08:03:16 GMT 34.78528 -106.94400 35,025 67 463 0
2017-09-13 08:03:07 GMT 34.77671 -106.96941 35,025 67 462 0
2017-09-13 08:02:56 GMT 34.76880 -106.99310 35,025 67 462 -64
2017-09-13 08:02:46 GMT 34.76006 -107.01900 35,025 67 462 0
2017-09-13 08:02:36 GMT 34.75218 -107.04271 35,000 67 462 64
2017-09-13 08:02:34 GMT 34.75149 -107.04512 35,000 67 462 64
2017-09-13 08:02:25 GMT 34.74324 -107.06949 35,000 67 462 0
2017-09-13 08:02:13 GMT 34.73411 -107.09644 35,000 67 461 0
2017-09-13 08:02:01 GMT 34.72366 -107.12752 35,000 67 460 64
2017-09-13 08:01:52 GMT 34.71730 -107.14674 35,000 67 461 0
2017-09-13 08:01:43 GMT 34.70892 -107.17163 35,000 67 460 0
2017-09-13 08:01:31 GMT 34.70064 -107.19601 35,000 67 460 0
2017-09-13 08:01:21 GMT 34.69208 -107.22176 35,000 67 460 0
2017-09-13 08:01:10 GMT 34.68333 -107.24768 35,000 67 461 64
2017-09-13 08:01:01 GMT 34.67509 -107.27208 34,975 67 461 0
2017-09-13 08:00:49 GMT 34.66635 -107.29797 35,000 67 462 0
2017-09-13 08:00:42 GMT 34.66017 -107.31619 35,000 67 463 64
2017-09-13 08:00:40 GMT 34.65825 -107.32202 35,000 67 463 64
2017-09-13 08:00:28 GMT 34.64986 -107.34655 34,975 67 465 0
2017-09-13 08:00:21 GMT 34.64246 -107.36821 35,000 67 466 -64
2017-09-13 08:00:19 GMT 34.64127 -107.37213 35,000 67 466 -64
2017-09-13 08:00:09 GMT 34.63421 -107.39290 35,000 67 468 0
2017-09-13 08:00:07 GMT 34.63249 -107.39771 35,000 67 468 0
2017-09-13 07:59:58 GMT 34.62392 -107.42311 35,000 67 470 0
2017-09-13 07:59:48 GMT 34.61673 -107.44405 35,000 67 471 0
2017-09-13 07:59:46 GMT 34.61517 -107.44887 35,000 67 471 -64
2017-09-13 07:59:38 GMT 34.60812 -107.46944 35,000 67 472 -128
2017-09-13 07:59:35 GMT 34.60625 -107.47549 35,000 67 473 -64
2017-09-13 07:59:29 GMT 34.60009 -107.49367 35,000 67 473 64
2017-09-13 07:59:26 GMT 34.59769 -107.50088 35,025 67 474 0
2017-09-13 07:59:18 GMT 34.59132 -107.51961 35,000 67 473 -64
2017-09-13 07:59:15 GMT 34.58910 -107.52594 35,000 67 473 -64
2017-09-13 07:59:08 GMT 34.58240 -107.54618 35,025 68 474 0
2017-09-13 07:59:05 GMT 34.58034 -107.55200 35,025 68 474 64
2017-09-13 07:58:56 GMT 34.57347 -107.57280 35,000 67 474 64
2017-09-13 07:58:54 GMT 34.57141 -107.57863 35,000 67 474 64
2017-09-13 07:58:46 GMT 34.56541 -107.59634 35,000 67 475 64
2017-09-13 07:58:44 GMT 34.56280 -107.60419 35,000 67 475 0
2017-09-13 07:58:36 GMT 34.55629 -107.62344 35,000 67 476 0
2017-09-13 07:58:32 GMT 34.55374 -107.63081 35,000 67 476 0
2017-09-13 07:58:26 GMT 34.54753 -107.64919 35,000 67 476 0
2017-09-13 07:58:23 GMT 34.54530 -107.65606 35,000 67 476 0
2017-09-13 07:58:15 GMT 34.53863 -107.67526 35,000 67 476 0
2017-09-13 07:58:11 GMT 34.53603 -107.68317 35,000 67 477 0
2017-09-13 07:58:05 GMT 34.52985 -107.70105 35,000 67 477 -64
2017-09-13 07:58:02 GMT 34.52728 -107.70895 35,000 67 477 0
2017-09-13 07:57:53 GMT 34.52095 -107.72713 35,000 67 477 0
2017-09-13 07:57:50 GMT 34.51817 -107.73552 35,000 67 477 -64
2017-09-13 07:57:44 GMT 34.51268 -107.75133 35,000 67 478 -64
2017-09-13 07:57:41 GMT 34.50980 -107.76024 35,000 67 478 0
2017-09-13 07:57:34 GMT 34.50377 -107.77760 35,000 67 478 64
2017-09-13 07:57:29 GMT 34.50084 -107.78652 35,000 67 478 0
2017-09-13 07:57:22 GMT 34.49465 -107.80420 35,000 67 478 0
2017-09-13 07:57:20 GMT 34.49227 -107.81124 35,000 67 478 0
2017-09-13 07:57:13 GMT 34.48590 -107.82995 35,000 67 479 0
2017-09-13 07:57:09 GMT 34.48334 -107.83748 35,000 67 479 -64
2017-09-13 07:57:01 GMT 34.47701 -107.85570 35,025 67 479 0
2017-09-13 07:56:59 GMT 34.47389 -107.86463 35,025 67 479 0
2017-09-13 07:56:52 GMT 34.46805 -107.88199 35,025 67 479 -64
2017-09-13 07:56:40 GMT 34.45894 -107.90823 35,025 67 479 64
2017-09-13 07:56:38 GMT 34.45638 -107.91562 35,025 67 480 64
2017-09-13 07:56:31 GMT 34.45038 -107.93295 35,000 67 480 64
2017-09-13 07:56:26 GMT 34.44693 -107.94290 35,000 67 480 64
2017-09-13 07:56:20 GMT 34.44127 -107.95923 35,000 67 480 0
2017-09-13 07:56:16 GMT 34.43767 -107.96968 35,000 67 480 -64
2017-09-13 07:56:09 GMT 34.43234 -107.98495 35,000 67 480 -64
2017-09-13 07:56:06 GMT 34.42928 -107.99387 35,000 67 480 0
2017-09-13 07:55:59 GMT 34.42342 -108.01068 35,000 67 480 0
2017-09-13 07:55:56 GMT 34.42017 -108.02015 35,000 67 480 0
2017-09-13 07:55:48 GMT 34.41467 -108.03595 35,000 67 479 0
2017-09-13 07:55:44 GMT 34.41106 -108.04622 35,025 67 479 0
2017-09-13 07:55:39 GMT 34.40488 -108.06410 35,025 67 479 -64
2017-09-13 07:55:35 GMT 34.40196 -108.07251 35,025 67 479 -64
2017-09-13 07:55:28 GMT 34.39647 -108.08830 35,025 67 479 0
2017-09-13 07:55:24 GMT 34.39320 -108.09773 35,025 67 479 64
2017-09-13 07:55:18 GMT 34.38739 -108.11405 35,025 67 479 0
2017-09-13 07:55:13 GMT 34.38377 -108.12436 35,000 67 478 0
2017-09-13 07:55:06 GMT 34.37796 -108.14117 35,025 67 479 0
2017-09-13 07:55:02 GMT 34.37468 -108.15044 35,025 67 478 0
2017-09-13 07:54:57 GMT 34.36954 -108.16572 35,025 67 478 -64
2017-09-13 07:54:52 GMT 34.36610 -108.17570 35,025 67 478 0
2017-09-13 07:54:46 GMT 34.36024 -108.19235 35,025 67 478 0
2017-09-13 07:54:40 GMT 34.35512 -108.20709 35,000 67 477 0
2017-09-13 07:54:35 GMT 34.35132 -108.21791 35,000 67 476 0
2017-09-13 07:54:31 GMT 34.34773 -108.22821 35,000 67 477 64
2017-09-13 07:54:24 GMT 34.34224 -108.24400 35,000 67 476 64
2017-09-13 07:54:20 GMT 34.33777 -108.25720 35,000 67 475 0
2017-09-13 07:54:14 GMT 34.33383 -108.26909 35,000 67 475 0
2017-09-13 07:54:09 GMT 34.32971 -108.28091 35,000 67 475 0
2017-09-13 07:54:05 GMT 34.32541 -108.29358 35,000 68 475 0
2017-09-13 07:54:00 GMT 34.32129 -108.30647 35,000 68 475 0
2017-09-13 07:53:53 GMT 34.31682 -108.31970 35,000 68 474 0
2017-09-13 07:53:49 GMT 34.31305 -108.33102 35,000 68 474 0
2017-09-13 07:53:43 GMT 34.30788 -108.34734 35,000 68 474 0
2017-09-13 07:53:39 GMT 34.30462 -108.35730 35,000 69 474 0
2017-09-13 07:53:32 GMT 34.29964 -108.37309 35,000 69 474 -64
2017-09-13 07:53:27 GMT 34.29638 -108.38407 35,000 69 474 0
2017-09-13 07:53:22 GMT 34.29178 -108.39901 35,000 70 474 0
2017-09-13 07:53:17 GMT 34.28800 -108.41188 35,000 70 474 0
2017-09-13 07:53:11 GMT 34.28405 -108.42493 35,000 70 474 -64
2017-09-13 07:53:06 GMT 34.28078 -108.43640 35,000 71 474 -64
2017-09-13 07:53:01 GMT 34.27702 -108.44999 35,000 72 474 0
2017-09-13 07:52:56 GMT 34.27287 -108.46613 35,000 72 474 -64
2017-09-13 07:52:51 GMT 34.27013 -108.47729 35,000 73 474 -64
2017-09-13 07:52:43 GMT 34.26535 -108.49599 35,000 73 474 0
2017-09-13 07:52:40 GMT 34.26379 -108.50215 35,000 73 474 -64
2017-09-13 07:52:35 GMT 34.26018 -108.51628 35,025 73 474 0
2017-09-13 07:52:31 GMT 34.25693 -108.52945 35,025 73 474 0
2017-09-13 07:52:24 GMT 34.25314 -108.54406 35,000 72 474 0
2017-09-13 07:52:19 GMT 34.25039 -108.55522 35,025 73 474 0
2017-09-13 07:52:14 GMT 34.24681 -108.56897 35,025 73 474 -64
2017-09-13 07:52:10 GMT 34.24388 -108.58113 35,000 73 474 0
2017-09-13 07:52:03 GMT 34.23976 -108.59727 35,000 73 474 64
2017-09-13 07:51:59 GMT 34.23720 -108.60742 35,025 73 474 64
2017-09-13 07:51:52 GMT 34.23321 -108.62303 35,000 72 474 64
2017-09-13 07:51:48 GMT 34.23033 -108.63419 35,000 72 474 64
2017-09-13 07:51:42 GMT 34.22600 -108.65135 35,000 72 474 0
2017-09-13 07:51:39 GMT 34.22378 -108.65994 35,000 73 474 0
2017-09-13 07:51:31 GMT 34.21948 -108.67726 35,000 73 474 0
2017-09-13 07:51:26 GMT 34.21538 -108.69289 35,000 73 474 0
2017-09-13 07:51:22 GMT 34.21315 -108.70199 35,000 73 474 -64
2017-09-13 07:51:18 GMT 34.20987 -108.71470 35,000 73 474 -64
2017-09-13 07:51:10 GMT 34.20626 -108.72929 35,025 73 473 0
2017-09-13 07:51:04 GMT 34.20216 -108.74542 35,000 73 473 0
2017-09-13 07:51:01 GMT 34.19960 -108.75555 35,000 72 473 0
2017-09-13 07:50:57 GMT 34.19632 -108.76824 35,025 72 473 0
2017-09-13 07:50:50 GMT 34.19290 -108.78181 35,000 72 473 0
2017-09-13 07:50:40 GMT 34.18584 -108.80960 35,000 72 474 0
2017-09-13 07:50:28 GMT 34.17865 -108.83743 35,000 72 473 -64
2017-09-13 07:50:19 GMT 34.17229 -108.86212 35,000 72 474 0
2017-09-13 07:50:08 GMT 34.16576 -108.88790 35,025 72 474 0
2017-09-13 07:49:58 GMT 34.15855 -108.91571 35,025 72 474 -64
2017-09-13 07:49:45 GMT 34.15137 -108.94402 35,025 72 474 64
2017-09-13 07:49:36 GMT 34.14482 -108.96907 35,000 72 474 0
2017-09-13 07:49:25 GMT 34.13814 -108.99536 35,000 72 473 64
2017-09-13 07:49:17 GMT 34.13214 -109.01851 35,000 72 473 0
2017-09-13 07:49:15 GMT 34.13126 -109.02214 35,000 72 473 0
2017-09-13 07:49:05 GMT 34.12423 -109.04926 35,000 72 473 -64
2017-09-13 07:48:55 GMT 34.11823 -109.07244 35,000 72 473 0
2017-09-13 07:48:53 GMT 34.11736 -109.07602 35,000 72 472 0
2017-09-13 07:48:45 GMT 34.11168 -109.09816 35,000 72 473 0
2017-09-13 07:48:39 GMT 34.10738 -109.11467 35,000 72 473 0
2017-09-13 07:48:33 GMT 34.10431 -109.12685 35,000 72 473 -64
2017-09-13 07:48:23 GMT 34.09747 -109.15295 35,000 72 474 0
2017-09-13 07:48:13 GMT 34.09058 -109.18024 35,000 72 474 64
2017-09-13 07:48:01 GMT 34.08373 -109.20651 35,000 72 475 0
2017-09-13 07:47:52 GMT 34.07684 -109.23331 35,000 72 476 0
2017-09-13 07:47:41 GMT 34.06963 -109.26109 35,000 72 476 0
2017-09-13 07:47:29 GMT 34.06261 -109.28807 35,000 72 477 0
2017-09-13 07:47:20 GMT 34.05592 -109.31346 35,000 72 477 -64
2017-09-13 07:47:08 GMT 34.04868 -109.34126 35,000 72 478 0
2017-09-13 07:46:58 GMT 34.04164 -109.36839 35,000 72 480 0
2017-09-13 07:46:48 GMT 34.03462 -109.39533 35,000 72 482 0
2017-09-13 07:46:36 GMT 34.02434 -109.43481 35,000 72 482 -64
2017-09-13 07:46:20 GMT 34.01692 -109.46363 35,000 72 484 64
2017-09-13 07:46:11 GMT 34.00992 -109.49025 35,000 72 485 0
2017-09-13 07:46:00 GMT 34.00287 -109.51773 35,000 72 486 0
2017-09-13 07:45:49 GMT 33.99566 -109.54571 35,000 72 487 0
2017-09-13 07:45:39 GMT 33.98863 -109.57266 35,000 72 489 0
2017-09-13 07:45:27 GMT 33.98122 -109.60118 35,000 72 489 0
2017-09-13 07:45:18 GMT 33.97420 -109.62776 35,000 72 491 64
2017-09-13 07:45:06 GMT 33.96698 -109.65538 35,000 72 491 0
2017-09-13 07:44:55 GMT 33.95893 -109.68613 35,000 72 492 0
2017-09-13 07:44:45 GMT 33.95206 -109.71171 35,000 72 492 0
2017-09-13 07:44:35 GMT 33.94450 -109.74037 35,000 72 492 0
2017-09-13 07:44:23 GMT 33.93728 -109.76749 35,000 72 492 -64
2017-09-13 07:44:14 GMT 33.93006 -109.79462 35,025 72 490 -128
2017-09-13 07:44:02 GMT 33.92271 -109.82260 35,000 72 487 448
2017-09-13 07:43:52 GMT 33.91563 -109.84938 34,850 72 486 1216
2017-09-13 07:43:42 GMT 33.90843 -109.87668 34,625 72 485 1280
2017-09-13 07:43:31 GMT 33.90088 -109.90499 34,375 72 485 1664
2017-09-13 07:43:21 GMT 33.89385 -109.93160 34,075 72 485 1792
2017-09-13 07:43:09 GMT 33.88664 -109.95891 33,750 72 486 1792
2017-09-13 07:42:59 GMT 33.87946 -109.98570 33,475 72 486 1600
2017-09-13 07:42:49 GMT 33.87190 -110.01451 33,150 72 486 1792
2017-09-13 07:42:38 GMT 33.86504 -110.04024 32,825 72 487 1984
2017-09-13 07:42:27 GMT 33.85730 -110.06928 32,450 72 488 1984
2017-09-13 07:42:17 GMT 33.85009 -110.09674 32,100 72 490 1984
2017-09-13 07:42:05 GMT 33.84306 -110.12320 31,750 72 491 2240
2017-09-13 07:41:56 GMT 33.83551 -110.15134 31,350 72 493 2240
2017-09-13 07:41:45 GMT 33.82796 -110.17964 30,925 72 495 2240
2017-09-13 07:41:34 GMT 33.82057 -110.20746 30,525 72 496 2368
2017-09-13 07:41:24 GMT 33.80959 -110.24849 29,875 72 499 2496
2017-09-13 07:41:07 GMT 33.80186 -110.27716 29,425 72 502 2624
2017-09-13 07:40:58 GMT 33.79463 -110.30430 28,975 72 505 2624
2017-09-13 07:40:47 GMT 33.78657 -110.33412 28,475 72 507 2560
2017-09-13 07:40:42 GMT 33.78314 -110.34702 28,275 72 508 2560
2017-09-13 07:40:35 GMT 33.77919 -110.36161 28,075 72 510 2304
2017-09-13 07:40:26 GMT 33.77129 -110.39130 27,725 72 509 1280
2017-09-13 07:40:18 GMT 33.76629 -110.41002 27,600 72 504 1600
2017-09-13 07:40:14 GMT 33.76410 -110.41809 27,525 72 506 1344
2017-09-13 07:40:04 GMT 33.75600 -110.44797 27,250 72 504 1600
2017-09-13 07:40:02 GMT 33.75549 -110.45021 27,225 72 504 1600
2017-09-13 07:39:53 GMT 33.74777 -110.47834 26,950 72 502 1408
2017-09-13 07:39:43 GMT 33.74125 -110.50255 26,775 72 499 1088
2017-09-13 07:39:39 GMT 33.73814 -110.51372 26,700 72 498 1152
2017-09-13 07:39:32 GMT 33.73251 -110.53462 26,500 72 495 1728
2017-09-13 07:39:22 GMT 33.72579 -110.55920 26,175 71 494 2176
2017-09-13 07:39:20 GMT 33.72510 -110.56175 26,150 71 494 2176
2017-09-13 07:39:10 GMT 33.71755 -110.58888 25,775 71 494 2112
2017-09-13 07:39:07 GMT 33.71499 -110.59868 25,625 71 494 2048
2017-09-13 07:39:00 GMT 33.70985 -110.61702 25,400 71 494 1920
2017-09-13 07:38:54 GMT 33.70573 -110.63215 25,225 71 493 1984
2017-09-13 07:38:50 GMT 33.70299 -110.64191 25,075 71 493 2048
2017-09-13 07:38:48 GMT 33.70196 -110.64554 25,025 71 493 2048
2017-09-13 07:38:44 GMT 33.69800 -110.66013 24,875 71 493 1920
2017-09-13 07:38:39 GMT 33.69475 -110.67195 24,725 71 492 1856
2017-09-13 07:38:29 GMT 33.68770 -110.69684 24,425 71 490 1920
2017-09-13 07:38:27 GMT 33.68683 -110.70047 24,375 71 490 1920
2017-09-13 07:38:17 GMT 33.67943 -110.72742 24,050 71 489 1856
2017-09-13 07:38:10 GMT 33.67484 -110.74443 23,825 71 488 1984
2017-09-13 07:38:08 GMT 33.67291 -110.75111 23,750 71 488 1984
2017-09-13 07:38:06 GMT 33.67191 -110.75474 23,700 71 487 1984
2017-09-13 07:37:59 GMT 33.66660 -110.77414 23,450 71 487 1856
2017-09-13 07:37:57 GMT 33.66537 -110.77875 23,400 72 486 1728
2017-09-13 07:37:55 GMT 33.66467 -110.78131 23,350 72 486 1664
2017-09-13 07:37:49 GMT 33.65745 -110.80845 23,125 72 481 1088
2017-09-13 07:37:45 GMT 33.65745 -110.80845 23,125 72 481 1216
2017-09-13 07:37:35 GMT 33.65044 -110.83417 22,800 72 480 3008
2017-09-13 07:37:25 GMT 33.64339 -110.86012 22,225 72 485 3136
2017-09-13 07:37:15 GMT 33.63638 -110.88635 21,825 72 486 1664
2017-09-13 07:37:12 GMT 33.63483 -110.89134 21,775 72 486 1536
2017-09-13 07:37:02 GMT 33.62796 -110.91696 21,500 71 484 1472
2017-09-13 07:36:53 GMT 33.62091 -110.94235 21,275 71 480 1408
2017-09-13 07:36:43 GMT 33.61404 -110.96757 21,025 71 478 1600
2017-09-13 07:36:41 GMT 33.61354 -110.96965 21,000 71 478 1600
2017-09-13 07:36:32 GMT 33.60634 -110.99522 20,725 71 476 1600
2017-09-13 07:36:22 GMT 33.59978 -111.01925 20,450 71 474 1728
2017-09-13 07:36:20 GMT 33.59875 -111.02284 20,400 71 474 1792
2017-09-13 07:36:10 GMT 33.59139 -111.04981 20,100 71 472 1664
2017-09-13 07:36:01 GMT 33.58521 -111.07262 19,875 71 470 1536
2017-09-13 07:35:59 GMT 33.58451 -111.07504 19,850 71 470 1536
2017-09-13 07:35:50 GMT 33.57747 -111.10025 19,575 71 468 1280
2017-09-13 07:35:48 GMT 33.57678 -111.10268 19,575 71 468 1280
2017-09-13 07:35:39 GMT 33.56992 -111.12755 19,350 71 463 1344
2017-09-13 07:35:28 GMT 33.56236 -111.15485 19,075 71 460 1536
2017-09-13 07:35:17 GMT 33.55583 -111.17855 18,850 71 456 1280
2017-09-13 07:35:07 GMT 33.54881 -111.20378 18,600 71 452 1472
2017-09-13 07:34:57 GMT 33.54177 -111.22902 18,325 71 449 1728
2017-09-13 07:34:55 GMT 33.54144 -111.23041 18,300 71 449 1728
2017-09-13 07:34:45 GMT 33.53474 -111.25440 18,000 71 447 2048
2017-09-13 07:34:35 GMT 33.52785 -111.27895 17,600 71 447 2304
2017-09-13 07:34:25 GMT 33.52120 -111.30333 17,250 71 447 1984
2017-09-13 07:34:23 GMT 33.51756 -111.31656 17,050 71 446 1856
2017-09-13 07:34:13 GMT 33.51449 -111.32788 16,925 71 446 1728
2017-09-13 07:34:09 GMT 33.51105 -111.33993 16,775 71 445 1728
2017-09-13 07:34:04 GMT 33.50743 -111.35264 16,600 71 444 1920
2017-09-13 07:33:58 GMT 33.50418 -111.36478 16,425 71 443 2112
2017-09-13 07:33:52 GMT 33.50006 -111.37923 16,200 71 443 2432
2017-09-13 07:33:48 GMT 33.49699 -111.39038 16,000 71 443 2688
2017-09-13 07:33:42 GMT 33.49387 -111.40153 15,775 71 444 2496
2017-09-13 07:33:36 GMT 33.49013 -111.41510 15,575 71 445 1984
2017-09-13 07:33:32 GMT 33.48684 -111.42676 15,425 71 444 1664
2017-09-13 07:33:26 GMT 33.48326 -111.43949 15,275 71 443 1472
2017-09-13 07:33:20 GMT 33.47981 -111.45198 15,150 71 441 1280
2017-09-13 07:33:15 GMT 33.47674 -111.46297 15,050 71 439 1152
2017-09-13 07:33:10 GMT 33.47296 -111.47640 14,950 71 437 1280
2017-09-13 07:33:04 GMT 33.46952 -111.48875 14,800 71 435 1664
2017-09-13 07:33:00 GMT 33.46610 -111.50112 14,650 71 434 1792
2017-09-13 07:32:55 GMT 33.45992 -111.52293 14,375 71 432 1600
2017-09-13 07:32:48 GMT 33.45919 -111.52513 14,350 71 431 1600
2017-09-13 07:32:40 GMT 33.45337 -111.54644 14,075 71 429 1856
2017-09-13 07:32:38 GMT 33.45267 -111.54867 14,025 71 429 1920
2017-09-13 07:32:28 GMT 33.44600 -111.57237 13,700 71 428 1856
2017-09-13 07:32:18 GMT 33.43982 -111.59396 13,425 71 426 1792
2017-09-13 07:32:16 GMT 33.43877 -111.59742 13,375 71 426 1792
2017-09-13 07:32:08 GMT 33.43293 -111.61835 13,100 71 424 1728
2017-09-13 07:32:06 GMT 33.43227 -111.62060 13,075 71 424 1728
2017-09-13 07:31:58 GMT 33.42677 -111.64015 12,850 71 420 1344
2017-09-13 07:31:56 GMT 33.42572 -111.64356 12,825 71 420 1216
2017-09-13 07:31:45 GMT 33.41940 -111.66641 12,675 71 414 768
2017-09-13 07:31:37 GMT 33.41357 -111.68667 12,550 71 407 704
2017-09-13 07:31:35 GMT 33.41254 -111.69047 12,525 71 406 768
2017-09-13 07:31:24 GMT 33.40635 -111.71274 12,400 71 397 832
2017-09-13 07:31:15 GMT 33.40086 -111.73180 12,275 71 390 896
2017-09-13 07:31:13 GMT 33.40031 -111.73387 12,250 71 390 896
2017-09-13 07:31:07 GMT 33.39639 -111.74811 12,150 71 384 960
2017-09-13 07:31:05 GMT 33.39550 -111.75136 12,125 71 383 960
2017-09-13 07:31:03 GMT 33.39413 -111.75568 12,075 71 381 960
2017-09-13 07:30:54 GMT 33.38919 -111.77402 11,950 71 375 896
2017-09-13 07:30:51 GMT 33.38832 -111.77715 11,925 71 372 896
2017-09-13 07:30:44 GMT 33.38351 -111.79413 11,800 71 365 832
2017-09-13 07:30:41 GMT 33.38280 -111.79688 11,775 71 363 896
2017-09-13 07:30:31 GMT 33.37715 -111.81682 11,625 70 355 896
2017-09-13 07:30:23 GMT 33.37251 -111.83258 11,475 71 347 1024
2017-09-13 07:30:21 GMT 33.37203 -111.83445 11,475 71 347 1024
2017-09-13 07:30:19 GMT 33.37130 -111.83706 11,450 70 345 1024
2017-09-13 07:30:12 GMT 33.36739 -111.85063 11,325 71 339 1088
2017-09-13 07:30:09 GMT 33.36566 -111.85629 11,275 71 338 1024
2017-09-13 07:30:02 GMT 33.36205 -111.86933 11,125 71 331 1152
2017-09-13 07:29:59 GMT 33.36050 -111.87445 11,075 71 329 1088
2017-09-13 07:29:50 GMT 33.35570 -111.89144 10,900 71 320 1088
2017-09-13 07:29:48 GMT 33.35536 -111.89251 10,900 71 320 1152
2017-09-13 07:29:40 GMT 33.35124 -111.90707 10,725 71 314 1024
2017-09-13 07:29:38 GMT 33.35019 -111.91036 10,700 71 312 1024
2017-09-13 07:29:31 GMT 33.34712 -111.92151 10,575 71 303 1920
2017-09-13 07:29:29 GMT 33.34644 -111.92410 10,525 71 305 1344
2017-09-13 07:29:27 GMT 33.34523 -111.92821 10,475 71 303 1728
2017-09-13 07:29:20 GMT 33.34178 -111.94087 10,200 71 302 2112
2017-09-13 07:29:16 GMT 33.34076 -111.94469 10,100 71 301 2112
2017-09-13 07:29:10 GMT 33.33820 -111.95376 9,900 71 299 2176
2017-09-13 07:29:08 GMT 33.33750 -111.95601 9,850 71 301 2176
2017-09-13 07:29:05 GMT 33.33614 -111.96134 9,725 71 299 2176
2017-09-13 07:29:00 GMT 33.33322 -111.97182 9,475 72 299 2176
2017-09-13 07:28:58 GMT 33.33302 -111.97266 9,450 72 299 2176
2017-09-13 07:28:55 GMT 33.33149 -111.97798 9,325 72 298 2176
2017-09-13 07:28:50 GMT 33.32945 -111.98589 9,150 72 298 2112
2017-09-13 07:28:47 GMT 33.32840 -111.99034 9,050 72 297 2112
2017-09-13 07:28:45 GMT 33.32721 -111.99446 8,975 72 297 2048
2017-09-13 07:28:43 GMT 33.32684 -111.99600 8,925 72 297 2048
2017-09-13 07:28:36 GMT 33.32409 -112.00696 8,675 73 296 2048
2017-09-13 07:28:33 GMT 33.32291 -112.01160 8,575 73 296 2048
2017-09-13 07:28:27 GMT 33.32018 -112.02260 8,350 74 294 1984
2017-09-13 07:28:23 GMT 33.31879 -112.02863 8,225 74 294 1920
2017-09-13 07:28:15 GMT 33.31623 -112.03942 8,000 74 292 1920
2017-09-13 07:28:11 GMT 33.31483 -112.04508 7,875 74 291 2176
2017-09-13 07:28:08 GMT 33.31311 -112.05280 7,675 74 291 2688
2017-09-13 07:28:06 GMT 33.31242 -112.05538 7,600 75 291 2880
2017-09-13 07:28:02 GMT 33.31106 -112.06189 7,400 77 293 3072
2017-09-13 07:27:54 GMT 33.30954 -112.07379 7,050 82 296 2752
2017-09-13 07:27:52 GMT 33.30920 -112.07736 6,950 84 297 2816
2017-09-13 07:27:50 GMT 33.30901 -112.07876 6,900 85 297 2880
2017-09-13 07:27:43 GMT 33.30882 -112.09059 6,600 94 300 1984
2017-09-13 07:27:40 GMT 33.30954 -112.09625 6,500 99 300 1664
2017-09-13 07:27:34 GMT 33.31192 -112.10773 6,300 108 298 1792
2017-09-13 07:27:30 GMT 33.31348 -112.11257 6,175 114 298 2240
2017-09-13 07:27:22 GMT 33.31810 -112.12234 5,925 124 299 2304
2017-09-13 07:27:18 GMT 33.32153 -112.12767 5,800 131 299 1920
2017-09-13 07:27:15 GMT 33.32651 -112.13353 5,625 138 299 1792
2017-09-13 07:27:13 GMT 33.32824 -112.13504 5,575 141 299 1792
2017-09-13 07:27:10 GMT 33.33115 -112.13762 5,500 146 298 1792
2017-09-13 07:27:08 GMT 33.33302 -112.13899 5,450 148 297 1856
2017-09-13 07:27:02 GMT 33.34006 -112.14311 5,275 160 296 1856
2017-09-13 07:26:58 GMT 33.34676 -112.14553 5,100 167 295 2048
2017-09-13 07:26:54 GMT 33.35262 -112.14674 4,950 172 294 2112
2017-09-13 07:26:51 GMT 33.35587 -112.14706 4,875 175 293 2048
2017-09-13 07:26:47 GMT 33.36050 -112.14726 4,750 178 292 1984
2017-09-13 07:26:40 GMT 33.36941 -112.14723 4,550 183 289 2240
2017-09-13 07:26:37 GMT 33.37477 -112.14674 4,375 188 288 2432
2017-09-13 07:26:32 GMT 33.38109 -112.14536 4,200 196 287 2048
2017-09-13 07:26:30 GMT 33.38315 -112.14465 4,150 198 286 1984
2017-09-13 07:26:26 GMT 33.38829 -112.14227 4,025 206 283 1600
2017-09-13 07:26:20 GMT 33.39519 -112.13729 3,875 218 277 1536
2017-09-13 07:26:17 GMT 33.39811 -112.13437 3,800 224 273 1600
2017-09-13 07:26:15 GMT 33.39946 -112.13263 3,750 225 271 1600
2017-09-13 07:26:11 GMT 33.40323 -112.12781 3,650 232 267 1152
2017-09-13 07:26:09 GMT 33.40444 -112.12596 3,625 234 265 960
2017-09-13 07:26:05 GMT 33.40770 -112.12013 3,575 237 257 512
2017-09-13 07:26:01 GMT 33.41012 -112.11598 3,525 237 253 896
2017-09-13 07:25:58 GMT 33.41199 -112.11240 3,475 237 249 1024
2017-09-13 07:25:56 GMT 33.41322 -112.11015 3,450 237 247 896
2017-09-13 07:25:53 GMT 33.41441 -112.10795 3,425 238 245 832
2017-09-13 07:25:47 GMT 33.41835 -112.10070 3,325 238 236 896
2017-09-13 07:25:45 GMT 33.42078 -112.09625 3,275 238 232 832
2017-09-13 07:25:43 GMT 33.42091 -112.09592 3,275 238 232 832
2017-09-13 07:25:38 GMT 33.42418 -112.08975 3,175 238 225 1216
2017-09-13 07:25:33 GMT 33.42660 -112.08510 3,075 238 221 1280
2017-09-13 07:25:33 GMT 33.42660 -112.08510 3,075 238 221 1280
2017-09-13 07:25:26 GMT 33.42984 -112.07928 2,950 236 217 1280
2017-09-13 07:25:22 GMT 33.43279 -112.07428 2,850 235 215 960
2017-09-13 07:25:17 GMT 33.43588 -112.06912 2,800 232 209 320
2017-09-13 07:25:12 GMT 33.43895 -112.06450 2,800 232 201 64
2017-09-13 07:25:07 GMT 33.44101 -112.06143 2,775 234 194 640
2017-09-13 07:25:05 GMT 33.44257 -112.05901 2,725 236 191 640
2017-09-13 07:25:01 GMT 33.44443 -112.05522 2,675 244 185 256
2017-09-13 07:24:54 GMT 33.44653 -112.04939 2,625 254 175 192
2017-09-13 07:24:49 GMT 33.44737 -112.04511 2,600 259 169 896

Making use of Plane Finder data

You are free to use the raw flight data, aircraft information and images provided in this report for your own purposes provided the data is correctly attributed to Plane Finder. We ask that you please credit Plane Finder and link to planefinder.net in close proximity to the content.

Optionally one of the following logos (no smaller then 150x24px) can be used and must link to planefinder.net

Embedding the Plane Finder map

You are welcome to embed the Plane Finder playback map on your website to offer visitors a more interactive experience. We suggest using the following HTML code:

<iframe src="//planefinder.net/data/report/ATN3767-N359AZ-7700-squawk-2017-09-13/map" width="800" height="600" seamless="seamless"></iframe>

Where our data comes from

Plane Finder has a global network of data feeds and antenna radars that receive data broadcast directly from aircraft. The primary technologies used are ADS-B and MLAT. We also show feeds from the FAA and a FLARM glider feed.

Click here to find out more about the Plane Finder network.

How we collect our data